Back to Top

Language: 

My Weather Underground Personal Weather Station Historical Data with Graphs...

Delerius Weather Station Historical Data
Daily Summary for January 21, 2018 Units:  Metric    English   Both
« Previous Day
Next Day »
Daily Weekly Monthly Yearly Custom
  High: Low: Average:
Temperature: 7 °C -1.1 °C 1.1 °C
Dew Point: 5.9 °C -1.9 °C 0.5 °C
Humidity: 98 % 91 % 96 %
Wind Speed: 20.9 km/h 0 km/h 6.4 km/h
Wind Gust: 38.6 km/h - -
Wind:- - South
Pressure: 1013.1 hPa 1001.9 hPa -
Precipitation: 4.83 mm    
Historical Graphs
 
 
Tabular Data for January 21, 2018
Time Temperature Dew Point Pressure Wind Wind Speed Wind Gust Humidity Rainfall Rate (Hourly) solar Conditions
00:01 -0.8 °C -1.8 °C 1011.1 hPa Calm     93 % 0 mm 0 W/m2
00:06 -0.9 °C -1.9 °C 1011.1 hPa Calm     93 % 0 mm 0 W/m2
00:11 -0.9 °C -1.9 °C 1011.1 hPa Calm     93 % 0 mm 0 W/m2
00:16 -0.9 °C -1.9 °C 1011.4 hPa Calm     93 % 0 mm 0 W/m2
00:21 -0.9 °C -1.7 °C 1011.4 hPa Calm     94 % 0 mm 0 W/m2
00:26 -0.9 °C -1.7 °C 1011.4 hPa Calm     94 % 0 mm 0 W/m2
00:31 -0.9 °C -1.7 °C 1011.4 hPa Calm     94 % 0 mm 0 W/m2
00:36 -0.9 °C -1.7 °C 1011.4 hPa Calm     94 % 0 mm 0 W/m2
00:41 -0.8 °C -1.7 °C 1011.4 hPa Calm     94 % 0 mm 0 W/m2
00:46 -0.8 °C -1.7 °C 1011.7 hPa Calm     94 % 0 mm 0 W/m2
00:51 -0.7 °C -1.6 °C 1011.7 hPa Calm     94 % 0 mm 0 W/m2
00:56 -0.7 °C -1.6 °C 1011.7 hPa Calm     94 % 0 mm 0 W/m2
01:02 -0.7 °C -1.6 °C 1011.7 hPa Calm     94 % 0 mm 0 W/m2
01:07 -0.6 °C -1.4 °C 1012.1 hPa Calm     94 % 0 mm 0 W/m2
01:12 -0.6 °C -1.4 °C 1012.1 hPa Calm     94 % 0 mm 0 W/m2
01:17 -0.6 °C -1.4 °C 1012.1 hPa Calm     94 % 0 mm 0 W/m2
01:22 -0.6 °C -1.4 °C 1012.4 hPa Calm     94 % 0 mm 0 W/m2
01:27 -0.7 °C -1.6 °C 1012.4 hPa Calm     94 % 0 mm 0 W/m2
01:32 -0.7 °C -1.6 °C 1012.4 hPa West 3.2 km/h 3.2 km/h 94 % 0 mm 0 W/m2
01:37 -0.7 °C -1.6 °C 1012.4 hPa West 1.6 km/h 3.2 km/h 94 % 0 mm 0 W/m2
01:42 -0.7 °C -1.6 °C 1012.4 hPa Calm   1.6 km/h 94 % 0 mm 0 W/m2
01:47 -0.6 °C -1.4 °C 1012.4 hPa Calm   3.2 km/h 94 % 0 mm 0 W/m2
01:52 -0.7 °C -1.6 °C 1012.4 hPa Calm     94 % 0 mm 0 W/m2
01:57 -0.7 °C -1.6 °C 1012.4 hPa WNW 1.6 km/h 3.2 km/h 94 % 0 mm 0 W/m2
02:02 -0.7 °C -1.6 °C 1012.4 hPa Calm   3.2 km/h 94 % 0 mm 0 W/m2
02:07 -0.7 °C -1.6 °C 1012.4 hPa Calm     94 % 0 mm 0 W/m2
02:12 -0.9 °C -1.7 °C 1012.4 hPa Calm     94 % 0 mm 0 W/m2
02:17 -1 °C -1.8 °C 1012.4 hPa Calm     94 % 0 mm 0 W/m2
02:22 -1.1 °C -1.9 °C 1012.8 hPa Calm     94 % 0 mm 0 W/m2
02:27 -1.1 °C -1.9 °C 1012.4 hPa NNE 6.4 km/h 8 km/h 94 % 0 mm 0 W/m2
02:32 -1.1 °C -1.9 °C 1012.4 hPa ENE 3.2 km/h 8 km/h 94 % 0 mm 0 W/m2
02:37 -1 °C -1.7 °C 1012.4 hPa Calm     95 % 0 mm 0 W/m2
02:42 -0.9 °C -1.6 °C 1012.4 hPa Calm     95 % 0 mm 0 W/m2
02:47 -0.8 °C -1.5 °C 1012.4 hPa Calm   3.2 km/h 95 % 0 mm 0 W/m2
02:52 -0.8 °C -1.5 °C 1012.4 hPa Calm     95 % 0 mm 0 W/m2
02:57 -0.8 °C -1.5 °C 1012.8 hPa Calm     95 % 0 mm 0 W/m2
03:02 -0.8 °C -1.5 °C 1012.8 hPa Calm     95 % 0 mm 0 W/m2
03:07 -0.8 °C -1.5 °C 1012.8 hPa Calm     95 % 0 mm 0 W/m2
03:13 -0.8 °C -1.5 °C 1012.8 hPa Calm     95 % 0 mm 0 W/m2
03:18 -0.8 °C -1.5 °C 1012.8 hPa Calm     95 % 0 mm 0 W/m2
03:23 -0.8 °C -1.5 °C 1012.4 hPa Calm     95 % 0 mm 0 W/m2
03:28 -0.7 °C -1.4 °C 1012.4 hPa Calm     95 % 0 mm 0 W/m2
03:33 -0.6 °C -1.3 °C 1012.4 hPa Calm     95 % 0 mm 0 W/m2
03:38 -0.6 °C -1.3 °C 1012.4 hPa Calm     95 % 0 mm 0 W/m2
03:43 -0.7 °C -1.4 °C 1012.4 hPa Calm     95 % 0 mm 0 W/m2
03:48 -0.8 °C -1.5 °C 1012.4 hPa Calm     95 % 0 mm 0 W/m2
03:53 -0.9 °C -1.6 °C 1012.4 hPa Calm     95 % 0 mm 0 W/m2
03:58 -0.9 °C -1.6 °C 1012.4 hPa Calm     95 % 0 mm 0 W/m2
04:03 -0.9 °C -1.6 °C 1012.4 hPa Calm     95 % 0 mm 0 W/m2
04:08 -0.9 °C -1.6 °C 1012.4 hPa Calm     95 % 0 mm 0 W/m2
04:13 -1 °C -1.7 °C 1012.4 hPa Calm     95 % 0 mm 0 W/m2
04:18 -0.9 °C -1.6 °C 1012.8 hPa Calm   3.2 km/h 95 % 0 mm 0 W/m2
04:23 -0.9 °C -1.6 °C 1012.8 hPa Calm     95 % 0 mm 0 W/m2
04:28 -0.9 °C -1.6 °C 1012.8 hPa Calm   1.6 km/h 95 % 0 mm 0 W/m2
04:33 -0.8 °C -1.5 °C 1012.8 hPa Calm     95 % 0 mm 0 W/m2
04:38 -0.7 °C -1.4 °C 1012.8 hPa Calm     95 % 0 mm 0 W/m2
04:43 -0.7 °C -1.3 °C 1012.8 hPa Calm     96 % 0 mm 0 W/m2
04:48 -0.6 °C -1.2 °C 1013.1 hPa Calm     96 % 0 mm 0 W/m2
04:53 -0.5 °C -1.1 °C 1013.1 hPa Calm     96 % 0 mm 0 W/m2
04:58 -0.4 °C -0.9 °C 1013.1 hPa Calm     96 % 0 mm 0 W/m2
05:03 -0.4 °C -0.9 °C 1013.1 hPa Calm     96 % 0 mm 0 W/m2
05:09 -0.4 °C -0.9 °C 1013.1 hPa Calm     96 % 0 mm 0 W/m2
05:14 -0.4 °C -0.9 °C 1013.1 hPa Calm     96 % 0 mm 0 W/m2
05:19 -0.4 °C -1.1 °C 1013.1 hPa Calm     95 % 0 mm 0 W/m2
05:24 -0.4 °C -1.1 °C 1013.1 hPa Calm   3.2 km/h 95 % 0 mm 0 W/m2
05:29 -0.4 °C -1.1 °C 1013.1 hPa Calm     95 % 0 mm 0 W/m2
05:34 -0.4 °C -1.1 °C 1013.1 hPa Calm     95 % 0 mm 0 W/m2
05:39 -0.4 °C -0.9 °C 1013.1 hPa Calm     96 % 0 mm 0 W/m2
05:44 -0.3 °C -0.8 °C 1012.8 hPa Calm     96 % 0 mm 0 W/m2
05:49 -0.3 °C -0.8 °C 1013.1 hPa Calm     96 % 0 mm 0 W/m2
05:54 -0.2 °C -0.8 °C 1013.1 hPa Calm     96 % 0 mm 0 W/m2
05:59 -0.2 °C -0.8 °C 1013.1 hPa Calm     96 % 0 mm 0 W/m2
06:04 -0.2 °C -0.8 °C 1013.1 hPa Calm     96 % 0 mm 0 W/m2
06:09 -0.2 °C -0.8 °C 1013.1 hPa Calm     96 % 0 mm 0 W/m2
06:19 -0.1 °C -0.7 °C 1013.1 hPa Calm     96 % 0 mm 0 W/m2
06:24 -0.1 °C -0.7 °C 1013.1 hPa Calm     96 % 0 mm 0 W/m2
06:29 -0.1 °C -0.7 °C 1013.1 hPa Calm     96 % 0 mm 0 W/m2
06:34 -0.1 °C -0.8 °C 1013.1 hPa Calm     95 % 0 mm 0 W/m2
06:39 -0.1 °C -0.8 °C 1013.1 hPa Calm     95 % 0 mm 0 W/m2
06:44 -0.1 °C -0.7 °C 1013.1 hPa Calm     96 % 0 mm 0 W/m2
06:49 -0.2 °C -0.8 °C 1013.1 hPa Calm     96 % 0 mm 0 W/m2
06:54 -0.2 °C -0.9 °C 1012.8 hPa Calm     95 % 0 mm 0 W/m2
06:59 -0.2 °C -0.8 °C 1012.8 hPa Calm     96 % 0 mm 0 W/m2
07:10 -0.2 °C -0.8 °C 1012.8 hPa Calm     96 % 0 mm 0 W/m2
07:15 -0.2 °C -0.8 °C 1013.1 hPa Calm     96 % 0 mm 0 W/m2
07:20 -0.1 °C -0.7 °C 1012.8 hPa Calm     96 % 0 mm 0 W/m2
07:25 -0.1 °C -0.7 °C 1012.8 hPa Calm     96 % 0 mm 0 W/m2
07:30 -0.1 °C -0.7 °C 1013.1 hPa Calm     96 % 0 mm 0 W/m2
07:35 -0.2 °C -0.8 °C 1013.1 hPa Calm     96 % 0 mm 0 W/m2
07:40 -0.2 °C -0.8 °C 1013.1 hPa Calm     96 % 0 mm 0 W/m2
07:45 -0.2 °C -0.8 °C 1012.8 hPa Calm     96 % 0 mm 0 W/m2
07:50 -0.2 °C -0.8 °C 1013.1 hPa ENE 3.2 km/h 4.8 km/h 96 % 0 mm 0 W/m2
08:05 0.1 °C -0.4 °C 1012.8 hPa ENE 1.6 km/h 4.8 km/h 96 % 0 mm 0 W/m2
08:10 0.1 °C -0.4 °C 1012.8 hPa Calm     96 % 0 mm 0 W/m2
08:15 0 °C -0.6 °C 1012.4 hPa Calm     96 % 0 mm 0 W/m2
08:20 0.1 °C -0.4 °C 1012.8 hPa Calm     96 % 0 mm 5 W/m2
08:30 0.3 °C -0.3 °C 1012.8 hPa Calm   1.6 km/h 96 % 0 mm 7 W/m2
08:35 0.3 °C -0.3 °C 1012.8 hPa Calm     96 % 0 mm 11 W/m2
08:40 0.4 °C -0.2 °C 1012.8 hPa SSE 6.4 km/h 11.3 km/h 96 % 0 mm 12 W/m2
08:45 0.4 °C -0.2 °C 1012.8 hPa SSE 3.2 km/h 8 km/h 96 % 0 mm 12 W/m2
08:50 0.5 °C -0.1 °C 1012.8 hPa Calm     96 % 0 mm 14 W/m2
08:55 0.5 °C -0.1 °C 1012.4 hPa Calm   1.6 km/h 96 % 0 mm 16 W/m2
09:00 0.6 °C 0.1 °C 1012.4 hPa Calm     96 % 0 mm 18 W/m2
09:05 0.7 °C 0.1 °C 1012.4 hPa SSE 3.2 km/h 6.4 km/h 96 % 0 mm 18 W/m2
09:10 0.8 °C 0.2 °C 1012.4 hPa SSE 6.4 km/h 9.7 km/h 96 % 0 mm 19 W/m2
09:15 0.9 °C 0.3 °C 1012.4 hPa South 8 km/h 12.9 km/h 96 % 0 mm 19 W/m2
09:20 1.1 °C 0.6 °C 1012.4 hPa South 8 km/h 14.5 km/h 96 % 0 mm 19 W/m2
09:25 1.2 °C 0.5 °C 1012.4 hPa SSE 6.4 km/h 9.7 km/h 95 % 0 mm 19 W/m2
09:30 1.3 °C 0.6 °C 1012.4 hPa SSE 9.7 km/h 14.5 km/h 95 % 0 mm 21 W/m2
09:35 1.4 °C 0.7 °C 1012.4 hPa South 8 km/h 12.9 km/h 95 % 0 mm 18 W/m2
09:41 1.4 °C 0.6 °C 1012.4 hPa SSE 6.4 km/h 9.7 km/h 94 % 0 mm 21 W/m2
09:46 1.5 °C 0.7 °C 1012.4 hPa SSE 6.4 km/h 9.7 km/h 94 % 0 mm 21 W/m2
09:51 1.5 °C 0.7 °C 1012.4 hPa SSE 8 km/h 11.3 km/h 94 % 0 mm 21 W/m2
09:56 1.6 °C 0.7 °C 1012.1 hPa SSE 8 km/h 11.3 km/h 94 % 0 mm 21 W/m2
10:01 1.6 °C 0.7 °C 1012.1 hPa SSE 9.7 km/h 14.5 km/h 94 % 0 mm 23 W/m2
10:06 1.6 °C 0.7 °C 1012.1 hPa SSE 9.7 km/h 14.5 km/h 94 % 0 mm 28 W/m2
10:11 1.6 °C 0.7 °C 1012.1 hPa SSE 4.8 km/h 11.3 km/h 94 % 0 mm 28 W/m2
10:16 1.6 °C 0.7 °C 1012.1 hPa SSE 6.4 km/h 12.9 km/h 94 % 0 mm 28 W/m2
10:21 1.6 °C 0.7 °C 1012.1 hPa SSE 6.4 km/h 9.7 km/h 94 % 0 mm 26 W/m2
10:26 1.5 °C 0.5 °C 1012.1 hPa SSE 9.7 km/h 16.1 km/h 93 % 0 mm 26 W/m2
10:31 1.4 °C 0.6 °C 1012.4 hPa SSE 6.4 km/h 11.3 km/h 94 % 0 mm 25 W/m2
10:36 1.3 °C 0.4 °C 1012.4 hPa SSE 8 km/h 11.3 km/h 94 % 0 mm 23 W/m2
10:41 1.3 °C 0.4 °C 1012.4 hPa SSE 6.4 km/h 9.7 km/h 94 % 0 mm 21 W/m2
10:46 1.2 °C 0.3 °C 1012.1 hPa SE 9.7 km/h 14.5 km/h 94 % 0 mm 23 W/m2
10:51 1.2 °C 0.3 °C 1012.1 hPa SSE 8 km/h 12.9 km/h 94 % 0 mm 25 W/m2
10:56 1.1 °C 0.2 °C 1012.1 hPa SE 9.7 km/h 16.1 km/h 94 % 0 mm 23 W/m2
11:01 1.1 °C 0.2 °C 1011.7 hPa SSE 11.3 km/h 16.1 km/h 94 % 0 mm 23 W/m2
11:06 1 °C 0.2 °C 1011.7 hPa SSE 8 km/h 12.9 km/h 94 % 0 mm 21 W/m2
11:11 0.9 °C 0.2 °C 1011.7 hPa SSE 9.7 km/h 14.5 km/h 95 % 0.25 mm 21 W/m2
11:16 0.9 °C 0.2 °C 1011.7 hPa SE 12.9 km/h 17.7 km/h 95 % 0.51 mm 23 W/m2
11:21 0.8 °C 0.1 °C 1011.4 hPa SSE 8 km/h 11.3 km/h 95 % 0.51 mm 25 W/m2
11:26 0.8 °C 0.1 °C 1011.1 hPa SSE 9.7 km/h 14.5 km/h 95 % 0.51 mm 26 W/m2
11:31 0.8 °C 0.1 °C 1010.7 hPa SSE 12.9 km/h 24.1 km/h 95 % 0.51 mm 26 W/m2
11:36 0.8 °C 0.1 °C 1010.7 hPa SSE 12.9 km/h 17.7 km/h 95 % 0.51 mm 25 W/m2
11:41 0.7 °C 0 °C 1010 hPa SSE 14.5 km/h 20.9 km/h 95 % 0.51 mm 28 W/m2
11:46 0.7 °C 0 °C 1010 hPa SSE 16.1 km/h 24.1 km/h 95 % 0.51 mm 32 W/m2
11:51 0.7 °C 0 °C 1010.7 hPa SSE 8 km/h 14.5 km/h 95 % 0.51 mm 35 W/m2
11:57 0.8 °C 0.2 °C 1010.7 hPa SE 11.3 km/h 17.7 km/h 96 % 0.51 mm 37 W/m2
12:02 0.8 °C 0.2 °C 1010.7 hPa SSE 12.9 km/h 19.3 km/h 96 % 0.51 mm 39 W/m2
12:07 0.8 °C 0.2 °C 1010.7 hPa SE 12.9 km/h 17.7 km/h 96 % 0.51 mm 35 W/m2
12:12 0.8 °C 0.2 °C 1010.4 hPa SE 14.5 km/h 20.9 km/h 96 % 0.51 mm 40 W/m2
12:17 0.8 °C 0.2 °C 1010 hPa SE 12.9 km/h 17.7 km/h 96 % 0.25 mm 37 W/m2
12:22 0.8 °C 0.2 °C 1010 hPa SE 12.9 km/h 19.3 km/h 96 % 0.25 mm 37 W/m2
12:27 0.8 °C 0.2 °C 1010.4 hPa SE 14.5 km/h 22.5 km/h 96 % 0.51 mm 33 W/m2
12:32 0.8 °C 0.2 °C 1010 hPa SE 11.3 km/h 19.3 km/h 96 % 0.51 mm 32 W/m2
12:37 0.8 °C 0.2 °C 1010 hPa SE 12.9 km/h 20.9 km/h 96 % 0.51 mm 30 W/m2
12:42 0.8 °C 0.2 °C 1009.7 hPa SE 16.1 km/h 22.5 km/h 96 % 0.51 mm 42 W/m2
12:47 0.8 °C 0.2 °C 1009.7 hPa SE 12.9 km/h 19.3 km/h 96 % 0.51 mm 39 W/m2
12:52 0.8 °C 0.2 °C 1009.7 hPa SE 12.9 km/h 19.3 km/h 96 % 0.51 mm 28 W/m2
12:57 0.8 °C 0.2 °C 1009.4 hPa SE 14.5 km/h 24.1 km/h 96 % 0.51 mm 23 W/m2
13:02 0.7 °C 0.1 °C 1009.4 hPa SE 14.5 km/h 22.5 km/h 96 % 0.51 mm 19 W/m2
13:07 0.8 °C 0.2 °C 1009.4 hPa SE 16.1 km/h 24.1 km/h 96 % 0.51 mm 21 W/m2
13:12 0.8 °C 0.2 °C 1009 hPa SE 14.5 km/h 24.1 km/h 96 % 0.51 mm 28 W/m2
13:17 0.8 °C 0.2 °C 1009 hPa SE 14.5 km/h 22.5 km/h 96 % 0.51 mm 28 W/m2
13:22 0.7 °C 0.1 °C 1008.7 hPa SE 14.5 km/h 20.9 km/h 96 % 0.51 mm 28 W/m2
13:27 0.7 °C 0.1 °C 1008.7 hPa SE 14.5 km/h 22.5 km/h 96 % 0.25 mm 23 W/m2
13:32 0.7 °C 0.1 °C 1008.7 hPa SE 14.5 km/h 20.9 km/h 96 % 0.25 mm 25 W/m2
13:37 0.8 °C 0.2 °C 1008.4 hPa SE 12.9 km/h 17.7 km/h 96 % 0.51 mm 21 W/m2
13:42 0.8 °C 0.2 °C 1008.4 hPa SE 16.1 km/h 24.1 km/h 96 % 0.51 mm 23 W/m2
13:47 0.8 °C 0.2 °C 1008 hPa SE 12.9 km/h 19.3 km/h 96 % 0.51 mm 25 W/m2
13:52 0.8 °C 0.2 °C 1008 hPa SE 17.7 km/h 25.7 km/h 96 % 0.51 mm 25 W/m2
13:57 0.8 °C 0.2 °C 1007.7 hPa SE 14.5 km/h 22.5 km/h 96 % 0.76 mm 32 W/m2
14:03 0.8 °C 0.2 °C 1007.7 hPa SE 14.5 km/h 22.5 km/h 96 % 0.51 mm 35 W/m2
14:08 0.8 °C 0.2 °C 1007.7 hPa SE 12.9 km/h 22.5 km/h 96 % 0.76 mm 28 W/m2
14:13 0.8 °C 0.2 °C 1007.7 hPa SE 16.1 km/h 22.5 km/h 96 % 0.76 mm 21 W/m2
14:18 0.8 °C 0.2 °C 1007.3 hPa SE 17.7 km/h 24.1 km/h 96 % 0.76 mm 19 W/m2
14:23 0.8 °C 0.2 °C 1007.3 hPa SE 17.7 km/h 24.1 km/h 96 % 0.76 mm 19 W/m2
14:28 0.8 °C 0.2 °C 1007 hPa SE 16.1 km/h 20.9 km/h 96 % 0.76 mm 19 W/m2
14:33 0.8 °C 0.2 °C 1007 hPa SE 19.3 km/h 33.8 km/h 96 % 1.02 mm 19 W/m2
14:38 0.8 °C 0.2 °C 1006.7 hPa SE 17.7 km/h 29 km/h 96 % 0.76 mm 18 W/m2
14:43 0.8 °C 0.2 °C 1007 hPa SSE 14.5 km/h 22.5 km/h 96 % 0.76 mm 16 W/m2
14:48 0.9 °C 0.3 °C 1007 hPa SE 16.1 km/h 29 km/h 96 % 0.51 mm 9 W/m2
14:53 0.9 °C 0.3 °C 1007 hPa SE 11.3 km/h 19.3 km/h 96 % 0.76 mm 7 W/m2
14:58 0.9 °C 0.3 °C 1006.7 hPa SE 16.1 km/h 20.9 km/h 96 % 0.76 mm 7 W/m2
15:03 0.8 °C 0.2 °C 1006.3 hPa SSE 17.7 km/h 30.6 km/h 96 % 0.76 mm 7 W/m2
15:08 0.8 °C 0.2 °C 1006.7 hPa SSE 16.1 km/h 24.1 km/h 96 % 0.51 mm 7 W/m2
15:13 0.9 °C 0.3 °C 1006.7 hPa SSE 12.9 km/h 22.5 km/h 96 % 0.76 mm 9 W/m2
15:18 0.9 °C 0.3 °C 1006.7 hPa SSE 14.5 km/h 22.5 km/h 96 % 0.76 mm 9 W/m2
15:23 0.9 °C 0.3 °C 1006.3 hPa SE 12.9 km/h 20.9 km/h 96 % 1.02 mm 9 W/m2
15:28 0.9 °C 0.3 °C 1006.3 hPa SSE 14.5 km/h 25.7 km/h 96 % 1.02 mm 11 W/m2
15:29 0.9 °C 0.3 °C 1006.3 hPa SSE 12.9 km/h 25.7 km/h 96 % 1.02 mm 11 W/m2
15:34 0.9 °C 0.5 °C 1006.3 hPa SE 12.9 km/h 19.3 km/h 97 % 1.02 mm 9 W/m2
15:39 0.9 °C 0.5 °C 1006 hPa SE 11.3 km/h 14.5 km/h 97 % 1.27 mm 9 W/m2
15:44 1 °C 0.6 °C 1006 hPa SSE 14.5 km/h 20.9 km/h 97 % 1.27 mm 9 W/m2
15:49 1 °C 0.6 °C 1006 hPa SSE 12.9 km/h 17.7 km/h 97 % 1.27 mm 5 W/m2
15:55 1 °C 0.6 °C 1006 hPa SE 11.3 km/h 22.5 km/h 97 % 1.52 mm 0 W/m2
16:00 1 °C 0.6 °C 1005.6 hPa SE 12.9 km/h 19.3 km/h 97 % 1.27 mm 0 W/m2
16:05 1 °C 0.6 °C 1005.3 hPa SSE 11.3 km/h 17.7 km/h 97 % 1.27 mm 0 W/m2
16:10 1 °C 0.6 °C 1005.3 hPa SSE 12.9 km/h 19.3 km/h 97 % 1.52 mm 0 W/m2
16:15 1 °C 0.6 °C 1005.3 hPa SSE 9.7 km/h 14.5 km/h 97 % 1.27 mm 0 W/m2
16:20 1.1 °C 0.7 °C 1005.3 hPa SSE 11.3 km/h 19.3 km/h 97 % 1.27 mm 0 W/m2
16:25 1.1 °C 0.7 °C 1005 hPa SSE 11.3 km/h 14.5 km/h 97 % 1.27 mm 0 W/m2
16:30 1.1 °C 0.7 °C 1005 hPa SSE 9.7 km/h 12.9 km/h 97 % 1.27 mm 0 W/m2
16:35 1.1 °C 0.7 °C 1005 hPa SSE 11.3 km/h 19.3 km/h 97 % 1.27 mm 0 W/m2
16:40 1.1 °C 0.7 °C 1004.6 hPa SSE 9.7 km/h 14.5 km/h 97 % 1.02 mm 0 W/m2
16:45 1.1 °C 0.7 °C 1004.6 hPa SE 9.7 km/h 14.5 km/h 97 % 1.02 mm 0 W/m2
16:50 1.1 °C 0.7 °C 1004.6 hPa SSE 11.3 km/h 17.7 km/h 97 % 1.02 mm 0 W/m2
16:55 1.1 °C 0.7 °C 1004.3 hPa SSE 9.7 km/h 16.1 km/h 97 % 0.76 mm 0 W/m2
17:00 1.1 °C 0.7 °C 1004.3 hPa South 11.3 km/h 20.9 km/h 97 % 0.76 mm 0 W/m2
17:05 1.1 °C 0.7 °C 1004.3 hPa South 12.9 km/h 22.5 km/h 97 % 0.51 mm 0 W/m2
17:10 1.1 °C 0.7 °C 1003.9 hPa SSE 11.3 km/h 19.3 km/h 97 % 0.51 mm 0 W/m2
17:15 1.2 °C 0.8 °C 1003.9 hPa SSE 12.9 km/h 22.5 km/h 97 % 0.51 mm 0 W/m2
17:20 1.2 °C 0.6 °C 1003.6 hPa SSE 11.3 km/h 16.1 km/h 96 % 0.51 mm 0 W/m2
17:25 1.2 °C 0.6 °C 1003.6 hPa SE 11.3 km/h 16.1 km/h 96 % 0.51 mm 0 W/m2
17:30 1.2 °C 0.6 °C 1003.9 hPa SSE 11.3 km/h 17.7 km/h 96 % 0.51 mm 0 W/m2
17:36 1.2 °C 0.6 °C 1003.9 hPa South 9.7 km/h 16.1 km/h 96 % 0.25 mm 0 W/m2
17:41 1.2 °C 0.6 °C 1003.6 hPa South 11.3 km/h 20.9 km/h 96 % 0.51 mm 0 W/m2
17:46 1.3 °C 0.7 °C 1003.6 hPa SSE 8 km/h 14.5 km/h 96 % 0.25 mm 0 W/m2
17:51 1.3 °C 0.7 °C 1003.3 hPa SE 12.9 km/h 20.9 km/h 96 % 0.25 mm 0 W/m2
17:56 1.3 °C 0.9 °C 1003.3 hPa SSE 11.3 km/h 17.7 km/h 97 % 0.25 mm 0 W/m2
18:01 1.3 °C 0.9 °C 1003.3 hPa SE 9.7 km/h 16.1 km/h 97 % 0.25 mm 0 W/m2
18:06 1.3 °C 0.9 °C 1003.3 hPa SE 9.7 km/h 16.1 km/h 97 % 0.25 mm 0 W/m2
18:11 1.4 °C 1 °C 1003.3 hPa SSE 8 km/h 14.5 km/h 97 % 0.25 mm 0 W/m2
18:16 1.4 °C 1 °C 1003.3 hPa SE 6.4 km/h 12.9 km/h 97 % 0.25 mm 0 W/m2
18:21 1.4 °C 1 °C 1003.3 hPa SSE 6.4 km/h 11.3 km/h 97 % 0.25 mm 0 W/m2
18:26 1.5 °C 1.1 °C 1003.3 hPa SE 8 km/h 12.9 km/h 97 % 0.25 mm 0 W/m2
18:31 1.5 °C 1.1 °C 1003.3 hPa SE 6.4 km/h 11.3 km/h 97 % 0.25 mm 0 W/m2
18:36 1.6 °C 1.2 °C 1003.3 hPa SE 3.2 km/h 8 km/h 97 % 0.25 mm 0 W/m2
18:41 1.6 °C 1.2 °C 1003.3 hPa SSE 6.4 km/h 9.7 km/h 97 % 0 mm 0 W/m2
18:46 1.6 °C 1.2 °C 1003.3 hPa SE 1.6 km/h 9.7 km/h 97 % 0 mm 0 W/m2
18:51 1.7 °C 1.3 °C 1002.9 hPa South 3.2 km/h 8 km/h 97 % 0.25 mm 0 W/m2
18:56 1.7 °C 1.3 °C 1002.9 hPa SSE 4.8 km/h 9.7 km/h 97 % 0.25 mm 0 W/m2
19:01 1.7 °C 1.3 °C 1002.6 hPa SSE 8 km/h 12.9 km/h 97 % 0.25 mm 0 W/m2
19:06 1.7 °C 1.3 °C 1002.6 hPa SSE 6.4 km/h 9.7 km/h 97 % 0.25 mm 0 W/m2
19:11 1.7 °C 1.3 °C 1002.6 hPa South 6.4 km/h 12.9 km/h 97 % 0.25 mm 0 W/m2
19:16 1.8 °C 1.4 °C 1002.6 hPa South 4.8 km/h 11.3 km/h 97 % 0.25 mm 0 W/m2
19:21 1.8 °C 1.4 °C 1002.6 hPa SSE 3.2 km/h 8 km/h 97 % 0.25 mm 0 W/m2
19:26 1.8 °C 1.4 °C 1002.6 hPa SE 4.8 km/h 8 km/h 97 % 0.25 mm 0 W/m2
19:31 1.9 °C 1.5 °C 1002.3 hPa SSE 6.4 km/h 11.3 km/h 97 % 0.25 mm 0 W/m2
19:36 1.9 °C 1.5 °C 1002.3 hPa SSE 1.6 km/h 6.4 km/h 97 % 0.25 mm 0 W/m2
19:41 1.9 °C 1.5 °C 1002.3 hPa SSE 4.8 km/h 8 km/h 97 % 0.25 mm 0 W/m2
19:46 2 °C 1.6 °C 1002.3 hPa SSE 4.8 km/h 9.7 km/h 97 % 0.25 mm 0 W/m2
19:52 2 °C 1.6 °C 1002.3 hPa SSE 3.2 km/h 6.4 km/h 97 % 0 mm 0 W/m2
19:57 2 °C 1.6 °C 1002.3 hPa SSE 1.6 km/h 6.4 km/h 97 % 0 mm 0 W/m2
20:02 2 °C 1.6 °C 1002.6 hPa Calm   6.4 km/h 97 % 0 mm 0 W/m2
20:07 2 °C 1.6 °C 1002.3 hPa Calm     97 % 0 mm 0 W/m2
20:12 2.1 °C 1.7 °C 1002.6 hPa SSE 1.6 km/h 6.4 km/h 97 % 0 mm 0 W/m2
20:17 2.1 °C 1.7 °C 1002.6 hPa Calm     97 % 0 mm 0 W/m2
20:27 2.2 °C 1.8 °C 1002.3 hPa Calm     97 % 0 mm 0 W/m2
20:32 2.3 °C 1.9 °C 1002.3 hPa Calm     97 % 0 mm 0 W/m2
20:37 2.4 °C 2 °C 1001.9 hPa Calm     97 % 0 mm 0 W/m2
20:42 2.4 °C 2 °C 1001.9 hPa West 3.2 km/h 8 km/h 97 % 0 mm 0 W/m2
20:47 2.8 °C 2.4 °C 1001.9 hPa WNW 9.7 km/h 16.1 km/h 97 % 0 mm 0 W/m2
20:52 3.6 °C 3.3 °C 1001.9 hPa West 1.6 km/h 9.7 km/h 98 % 0 mm 0 W/m2
20:57 3.8 °C 3.5 °C 1001.9 hPa South 1.6 km/h 3.2 km/h 98 % 0 mm 0 W/m2
21:02 3.9 °C 3.6 °C 1001.9 hPa Calm   1.6 km/h 98 % 0 mm 0 W/m2
21:07 4.1 °C 3.8 °C 1001.9 hPa Calm   1.6 km/h 98 % 0 mm 0 W/m2
21:12 4.3 °C 4 °C 1001.9 hPa Calm   1.6 km/h 98 % 0 mm 0 W/m2
21:17 4.5 °C 4.2 °C 1001.9 hPa Calm   3.2 km/h 98 % 0 mm 0 W/m2
21:22 4.8 °C 4.5 °C 1001.9 hPa WSW 9.7 km/h 17.7 km/h 98 % 0 mm 0 W/m2
21:27 5.2 °C 4.9 °C 1001.9 hPa West 8 km/h 29 km/h 98 % 0 mm 0 W/m2
21:32 5.6 °C 5.3 °C 1001.9 hPa West 8 km/h 17.7 km/h 98 % 0 mm 0 W/m2
21:37 5.8 °C 5.5 °C 1001.9 hPa West 11.3 km/h 22.5 km/h 98 % 0 mm 0 W/m2
21:57 6.2 °C 5.9 °C 1001.9 hPa WNW 17.7 km/h 29 km/h 98 % 0 mm 0 W/m2
22:07 6.1 °C 5.7 °C 1001.9 hPa WNW 20.9 km/h 38.6 km/h 97 % 0 mm 0 W/m2
22:12 6.2 °C 5.8 °C 1002.3 hPa WNW 19.3 km/h 33.8 km/h 97 % 0 mm 0 W/m2
22:17 6.2 °C 5.8 °C 1002.3 hPa WNW 17.7 km/h 33.8 km/h 97 % 0 mm 0 W/m2
22:22 6.3 °C 5.8 °C 1001.9 hPa WNW 12.9 km/h 24.1 km/h 97 % 0 mm 0 W/m2
22:27 6.3 °C 5.7 °C 1001.9 hPa WNW 12.9 km/h 29 km/h 96 % 0 mm 0 W/m2
22:32 6.3 °C 5.7 °C 1001.9 hPa NW 14.5 km/h 30.6 km/h 96 % 0 mm 0 W/m2
22:37 6.3 °C 5.7 °C 1001.9 hPa WNW 20.9 km/h 33.8 km/h 96 % 0 mm 0 W/m2
22:43 6.3 °C 5.7 °C 1002.3 hPa WNW 20.9 km/h 38.6 km/h 96 % 0 mm 0 W/m2
22:48 6.4 °C 5.7 °C 1002.3 hPa WNW 16.1 km/h 24.1 km/h 95 % 0 mm 0 W/m2
22:52 6.5 °C 5.8 °C 1002.6 hPa WNW 17.7 km/h 35.4 km/h 95 % 0 mm 0 W/m2
22:58 6.6 °C 5.8 °C 1002.6 hPa WNW 17.7 km/h 32.2 km/h 95 % 0 mm 0 W/m2
23:03 6.7 °C 5.8 °C 1002.6 hPa WNW 19.3 km/h 25.7 km/h 94 % 0 mm 0 W/m2
23:08 6.7 °C 5.8 °C 1002.6 hPa WNW 9.7 km/h 16.1 km/h 94 % 0 mm 0 W/m2
23:13 6.8 °C 5.9 °C 1002.6 hPa West 12.9 km/h 24.1 km/h 94 % 0 mm 0 W/m2
23:18 6.7 °C 5.8 °C 1002.9 hPa WNW 14.5 km/h 29 km/h 94 % 0 mm 0 W/m2
23:23 6.8 °C 5.7 °C 1002.9 hPa WNW 12.9 km/h 24.1 km/h 93 % 0 mm 0 W/m2
23:33 6.8 °C 5.7 °C 1002.9 hPa NW 6.4 km/h 17.7 km/h 93 % 0 mm 0 W/m2
23:38 6.8 °C 5.7 °C 1002.9 hPa NW 9.7 km/h 17.7 km/h 93 % 0 mm 0 W/m2
23:43 6.9 °C 5.7 °C 1003.3 hPa NNW 8 km/h 19.3 km/h 92 % 0 mm 0 W/m2
23:48 6.9 °C 5.7 °C 1003.3 hPa NNW 1.6 km/h 9.7 km/h 92 % 0 mm 0 W/m2
23:53 7 °C 5.8 °C 1003.3 hPa NNW 3.2 km/h 9.7 km/h 92 % 0 mm 0 W/m2
23:58 7 °C 5.6 °C 1003.6 hPa NNW 3.2 km/h 16.1 km/h 91 % 0 mm 0 W/m2
Delerius-Weather
Compliments of Weather Underground - 2.25 mb

Data updates at regular intervals.